Wasioja, Minnesota
Current Conditions -  °F | °C
As of 7:34 PM on Friday 24 Oct 2014 (Local Time) from KTOB Reporting Station
Moderate Fog Moderate Fog  
Wind Chill: 54°   Ceiling: 10000
Heat Index: 54°   Visibility: 0.5mi
Dew Point: 54°   Wind: 6mph
Humidity: 100%   Direction: 220°SW
Pressure: 29.9"   Gusts: NA
Location:  44.0228°N, 92.8616°W
Report Text: KTOB 250034Z AUTO 22005KT 1/2SM FG BKN100 12/12 A2990 RMK AO2
Loading
Personal Weather Stations






























Interactive Weather Map
Tropical Storm Tracking
New forecast layout! Learn more

10-Day Weather Forecast

Advertisements
Track Severe Weather on mobile